Time;durP1;ratioP1;P1;durP2;ratioP2;P2;SDS_P1;SDS_P2;PMS_P1;PMS_P2;Temp;Humidity;BMP_temperature;BMP_pressure;BME280_temperature;BME280_humidity;BME280_pressure;Samples;Min_cycle;Max_cycle;Signal;HPM_P1;HPM_P2
2022/02/08 00:03:33;;;;;;;13.45;6.15;;;;;;;8.03;100.00;102539.75;10459435;28;20032;-77
2022/02/08 00:08:33;;;;;;;11.52;4.32;;;;;;;8.05;100.00;102540.47;10459272;28;20041;-76
2022/02/08 00:13:34;;;;;;;21.15;6.68;;;;;;;8.14;100.00;102545.03;10459135;28;20029;-76
2022/02/08 00:18:34;;;;;;;14.88;5.53;;;;;;;8.16;100.00;102538.47;10459163;28;20037;-76
2022/02/08 00:23:34;;;;;;;19.55;5.03;;;;;;;8.21;100.00;102543.47;10458620;28;20364;-76
2022/02/08 00:28:35;;;;;;;13.00;4.15;;;;;;;8.28;100.00;102539.19;10458830;28;20086;-76
2022/02/08 00:33:35;;;;;;;15.85;5.13;;;;;;;8.35;100.00;102540.31;10458549;28;20033;-76
2022/02/08 00:38:37;;;;;;;27.95;4.53;;;;;;;8.42;100.00;102529.84;10440617;28;20546;-76
2022/02/08 00:43:48;;;;;;;11.02;3.30;;;;;;;8.51;100.00;102528.97;10440405;28;20379;-76
2022/02/08 00:48:58;;;;;;;9.43;3.65;;;;;;;8.55;100.00;102534.94;10457922;28;20033;-76
2022/02/08 00:53:58;;;;;;;24.23;4.88;;;;;;;8.55;100.00;102529.53;10457395;28;20029;-76
2022/02/08 00:58:59;;;;;;;23.52;5.18;;;;;;;8.51;100.00;102528.97;10457290;28;20044;-76
2022/02/08 01:03:59;;;;;;;20.42;5.85;;;;;;;8.55;100.00;102524.13;10457030;28;20063;-76
2022/02/08 01:09:11;;;;;;;25.60;6.40;;;;;;;8.54;100.00;102522.44;10457231;28;20464;-76
2022/02/08 01:14:13;;;;;;;15.40;5.25;;;;;;;8.55;100.00;102524.13;10456865;28;20024;-76
2022/02/08 01:19:14;;;;;;;20.60;5.50;;;;;;;8.53;100.00;102528.84;10456978;28;20041;-76
2022/02/08 01:24:15;;;;;;;24.35;6.20;;;;;;;8.55;100.00;102524.13;10422155;28;20028;-76
2022/02/08 01:29:23;;;;;;;12.20;5.00;;;;;;;8.55;100.00;102522.31;10457082;28;20471;-76
2022/02/08 01:34:40;;;;;;;19.38;7.18;;;;;;;8.55;100.00;102513.31;10439166;28;20068;-76
2022/02/08 01:39:59;;;;;;;13.85;4.95;;;;;;;8.52;100.00;102519.03;10456457;28;20116;-76
2022/02/08 01:50:12;;;;;;;22.05;7.03;;;;;;;8.58;100.00;102527.41;10467676;28;20040;-76
2022/02/08 01:55:13;;;;;;;18.25;7.15;;;;;;;8.65;100.00;102534.91;10464056;28;20025;-76
2022/02/08 02:00:14;;;;;;;28.38;8.38;;;;;;;8.61;100.00;102546.03;10429976;28;20036;-76
2022/02/08 02:05:15;;;;;;;18.52;6.47;;;;;;;8.62;100.00;102536.09;10446485;28;20071;-76
2022/02/08 02:10:17;;;;;;;19.35;5.05;;;;;;;8.57;100.00;102550.00;10463952;28;20037;-76
2022/02/08 02:15:17;;;;;;;18.15;6.22;;;;;;;8.61;100.00;102539.75;10463931;28;20033;-75
2022/02/08 02:20:18;;;;;;;21.25;6.53;;;;;;;8.65;100.00;102541.19;10445670;28;20411;-76
2022/02/08 02:25:28;;;;;;;17.88;5.55;;;;;;;8.66;100.00;102542.88;10463005;28;20091;-76
2022/02/08 02:30:30;;;;;;;14.85;4.30;;;;;;;8.69;100.00;102530.94;10463453;28;20024;-76
2022/02/08 02:35:31;;;;;;;20.58;4.65;;;;;;;8.69;100.00;102533.66;10445517;28;20029;-76
2022/02/08 02:40:31;;;;;;;14.30;4.70;;;;;;;8.73;100.00;102533.19;10462833;28;20056;-76
2022/02/08 02:45:32;;;;;;;25.75;5.93;;;;;;;8.77;100.00;102541.88;10445201;28;20036;-76
2022/02/08 02:50:32;;;;;;;18.67;5.97;;;;;;;8.78;100.00;102536.34;10463447;28;20476;-76
2022/02/08 02:55:34;;;;;;;8.55;4.40;;;;;;;8.80;100.00;102528.91;10444153;28;20095;-76
2022/02/08 03:21:34;;;;;;;16.25;5.80;;;;;;;8.80;100.00;102528.91;10460978;28;20033;-76
2022/02/08 03:26:35;;;;;;;23.27;4.95;;;;;;;8.88;100.00;102530.91;10460992;28;20033;-76
2022/02/08 03:31:35;;;;;;;22.75;5.07;;;;;;;8.83;100.00;102527.78;10460802;28;20506;-76
2022/02/08 03:36:35;;;;;;;15.23;6.18;;;;;;;8.78;100.00;102541.72;10443132;28;20120;-76
2022/02/08 03:41:41;;;;;;;21.73;8.07;;;;;;;8.81;100.00;102537.91;10443441;28;20027;-76
2022/02/08 03:46:42;;;;;;;18.17;5.30;;;;;;;8.83;100.00;102541.28;10460350;28;20037;-76
2022/02/08 03:51:57;;;;;;;16.63;4.45;;;;;;;8.83;100.00;102535.88;10441825;28;20036;-76
2022/02/08 03:56:58;;;;;;;32.80;6.72;;;;;;;8.84;100.00;102553.81;10460311;28;20048;-76
2022/02/08 04:07:34;;;;;;;18.88;4.93;;;;;;;8.79;100.00;102554.22;10461017;28;20041;-76
2022/02/08 04:12:55;;;;;;;;;;;;;;;8.88;100.00;102557.91;10441426;28;20086;-76
2022/02/08 04:18:35;;;;;;;19.63;4.45;;;;;;;8.88;100.00;102557.91;10458840;28;19917;-76
2022/02/08 04:39:33;;;;;;;17.60;4.90;;;;;;;8.85;100.00;102563.63;10457979;28;20045;-76
2022/02/08 04:49:56;;;;;;;18.00;4.77;;;;;;;8.85;100.00;102552.81;10441517;28;20380;-76
2022/02/08 05:00:57;;;;;;;22.77;5.88;;;;;;;8.83;100.00;102554.78;10440449;28;20065;-76
2022/02/08 05:47:42;;;;;;;21.80;5.07;;;;;;;8.99;100.00;102541.53;10455890;28;20102;-76
2022/02/08 05:52:49;;;;;;;13.45;4.95;;;;;;;8.95;100.00;102532.00;10455105;28;20033;-77
2022/02/08 05:57:52;;;;;;;12.48;5.03;;;;;;;8.95;100.00;102531.16;10455991;28;20508;-76
2022/02/08 06:02:55;;;;;;;9.65;5.03;;;;;;;8.91;100.00;102540.56;10455734;28;20033;-76
2022/02/08 06:07:55;;;;;;;19.85;4.55;;;;;;;8.94;100.00;102533.03;10439213;28;20499;-76
2022/02/08 06:12:57;;;;;;;14.77;4.03;;;;;;;8.92;100.00;102535.00;10455174;28;20068;-76
2022/02/08 06:17:58;;;;;;;13.52;3.08;;;;;;;8.94;100.00;102527.63;10458358;28;20041;-76
2022/02/08 06:22:58;;;;;;;23.33;4.13;;;;;;;8.98;100.00;102529.03;10455512;28;20036;-76
2022/02/08 06:27:58;;;;;;;11.52;4.30;;;;;;;8.96;100.00;102533.69;10421433;28;20388;-76
2022/02/08 06:32:59;;;;;;;18.90;4.55;;;;;;;8.99;100.00;102548.78;10423459;28;20024;-76
2022/02/08 06:38:01;;;;;;;15.68;4.60;;;;;;;8.98;100.00;102545.22;10428204;28;20453;-76
2022/02/08 06:43:03;;;;;;;14.60;5.55;;;;;;;9.04;100.00;102541.94;10461223;28;20037;-76
2022/02/08 06:48:04;;;;;;;13.65;5.80;;;;;;;8.96;100.00;102549.06;10462015;28;20040;-76
2022/02/08 06:53:05;;;;;;;2.47;2.30;;;;;;;8.98;100.00;102566.00;10394248;28;20507;-78
2022/02/08 06:58:08;;;;;;;12.85;3.97;;;;;;;8.98;100.00;102569.53;10403201;28;20080;-75
2022/02/08 07:03:10;;;;;;;23.70;4.43;;;;;;;8.93;100.00;102570.97;10461645;28;20041;-75
2022/02/08 07:08:10;;;;;;;19.35;4.38;;;;;;;8.95;100.00;102579.81;10443827;28;20040;-75
2022/02/08 07:13:11;;;;;;;15.10;4.43;;;;;;;8.99;100.00;102571.25;10442924;28;20059;-78
2022/02/08 07:18:11;;;;;;;9.68;3.63;;;;;;;8.99;100.00;102567.69;10444253;28;20037;-77
2022/02/08 07:23:11;;;;;;;6.72;2.33;;;;;;;8.97;100.00;102584.06;10460905;28;20037;-78
2022/02/08 07:28:12;;;;;;;12.93;4.38;;;;;;;9.05;100.00;102594.97;10460224;28;20041;-78
2022/02/08 07:33:12;;;;;;;5.93;2.92;;;;;;;9.17;100.00;102601.06;10460237;28;20503;-79
2022/02/08 07:38:22;;;;;;;10.45;3.10;;;;;;;9.23;100.00;102600.50;10462142;28;20045;-75
2022/02/08 07:43:22;;;;;;;7.45;2.35;;;;;;;9.29;100.00;102609.88;10459815;28;20025;-78
2022/02/08 07:48:24;;;;;;;11.43;4.07;;;;;;;9.37;100.00;102601.84;10442268;28;20468;-78
2022/02/08 07:53:27;;;;;;;13.05;3.20;;;;;;;9.35;98.63;102603.88;10441146;28;20033;-77
2022/02/08 07:58:29;;;;;;;17.90;3.55;;;;;;;9.45;100.00;102604.69;10459232;28;20056;-77
2022/02/08 08:03:29;;;;;;;6.65;2.75;;;;;;;9.50;100.00;102598.81;10459026;28;20059;-77
2022/02/08 08:08:30;;;;;;;10.13;2.70;;;;;;;9.50;99.34;102602.38;10459650;28;20373;-77
2022/02/08 08:13:37;;;;;;;16.40;3.55;;;;;;;9.60;99.30;102602.31;10440759;28;20123;-77
2022/02/08 08:18:55;;;;;;;;;;;;;;;9.65;99.63;102601.91;10459470;28;20044;-77
2022/02/08 08:23:55;;;;;;;8.43;3.35;;;;;;;9.57;97.80;102597.22;10458083;28;19965;-76
2022/02/08 08:28:56;;;;;;;9.63;3.42;;;;;;;9.37;98.18;102603.72;10393787;28;20080;-74
2022/02/08 08:33:56;;;;;;;6.93;2.70;;;;;;;9.49;98.13;102606.09;10456779;28;20029;-76
2022/02/08 08:38:57;;;;;;;3.30;2.97;;;;;;;11.01;92.08;102611.72;10424146;28;20059;-77
2022/02/08 08:49:24;;;;;;;6.22;2.58;;;;;;;12.16;86.73;102626.75;10458933;28;20048;-77
2022/02/08 08:54:24;;;;;;;11.63;3.28;;;;;;;11.58;89.68;102620.19;10457722;28;20040;-77
2022/02/08 08:59:25;;;;;;;14.98;2.58;;;;;;;11.90;87.24;102610.53;10456179;28;20138;-76
2022/02/08 09:04:32;;;;;;;17.30;3.55;;;;;;;12.21;84.84;102614.38;10457023;28;20098;-76
2022/02/08 09:09:36;;;;;;;20.52;3.08;;;;;;;12.25;85.13;102607.59;10458753;28;20037;-77
2022/02/08 09:14:45;;;;;;;7.28;3.28;;;;;;;12.77;82.40;102615.44;10438436;28;20190;-76
2022/02/08 09:20:15;;;;;;;2.60;2.30;;;;;;;13.13;82.10;102645.00;10456281;28;20044;-77
2022/02/08 09:26:01;;;;;;;10.45;2.83;;;;;;;12.54;85.93;102644.31;10454762;28;20179;-76
2022/02/08 09:30:40;;;;;;;2.80;1.77;;;;;;;11.75;84.45;102643.72;10444890;28;20053;-76
2022/02/08 09:35:40;;;;;;;14.45;3.03;;;;;;;11.49;87.83;102634.78;10440086;28;20082;-76
2022/02/08 09:40:41;;;;;;;9.82;2.75;;;;;;;11.50;86.90;102625.59;10455648;28;20492;-76
2022/02/08 09:45:45;;;;;;;5.47;1.83;;;;;;;11.52;85.18;102632.59;10456070;28;20056;-76
2022/02/08 09:50:48;;;;;;;3.83;1.85;;;;;;;11.47;86.29;102625.94;10455659;28;20045;-76
2022/02/08 09:55:48;;;;;;;13.13;4.72;;;;;;;11.44;85.77;102624.38;10437193;28;20032;-76
2022/02/08 10:00:49;;;;;;;3.75;2.30;;;;;;;11.42;84.45;102637.25;10455052;28;20411;-77
2022/02/08 10:05:53;;;;;;;16.13;2.63;;;;;;;11.37;84.99;102634.19;10437646;28;20071;-76
2022/02/08 10:10:54;;;;;;;8.13;2.42;;;;;;;11.58;86.37;102634.66;10445779;28;20033;-76
2022/02/08 10:26:54;;;;;;;4.53;2.08;;;;;;;11.47;84.04;102647.63;10446840;28;20114;-76
2022/02/08 10:42:23;;;;;;;15.18;2.88;;;;;;;11.51;84.96;102647.13;10461490;28;20040;-76
2022/02/08 10:47:37;;;;;;;4.45;1.98;;;;;;;11.74;84.45;102639.31;10444216;28;20033;-76
2022/02/08 10:52:42;;;;;;;12.52;2.90;;;;;;;11.98;82.10;102637.72;10444105;28;20044;-76
2022/02/08 10:57:50;;;;;;;9.25;3.40;;;;;;;12.36;81.19;102632.75;10461291;28;20057;-76
2022/02/08 11:02:53;;;;;;;9.70;2.63;;;;;;;12.54;82.23;102620.72;10461804;28;20475;-76
2022/02/08 11:08:04;;;;;;;7.70;2.38;;;;;;;12.40;82.37;102623.22;10443265;28;20384;-76
2022/02/08 11:13:28;;;;;;;5.93;2.42;;;;;;;12.13;80.92;102622.50;10443815;28;20033;-76
2022/02/08 11:18:41;;;;;;;4.47;1.60;;;;;;;12.27;83.67;102624.56;10444783;28;20112;-76
2022/02/08 11:29:13;;;;;;;17.55;3.60;;;;;;;12.24;83.62;102624.06;10460564;28;20029;-75
2022/02/08 11:55:48;;;;;;;3.57;3.07;;;;;;;12.58;78.58;102615.78;10428018;28;20047;-77
2022/02/08 12:00:58;;;;;;;2.63;1.83;;;;;;;12.78;80.54;102608.13;10459199;28;20060;-77
2022/02/08 12:06:47;;;;;;;4.45;2.08;;;;;;;12.87;78.67;102609.00;10460245;28;20025;-77
2022/02/08 12:59:14;;;;;;;10.85;2.78;;;;;;;12.51;78.17;102621.06;10457365;28;20045;-76
2022/02/08 13:05:08;;;;;;;18.27;3.25;;;;;;;12.42;78.83;102622.06;10457217;28;20037;-76
2022/02/08 14:08:26;;;;;;;4.85;3.63;;;;;;;11.97;80.60;102592.59;10413502;28;20037;-75
2022/02/08 15:10:53;;;;;;;1.42;1.33;;;;;;;11.58;79.44;102602.09;10378865;28;20449;-76
2022/02/08 15:21:18;;;;;;;6.10;2.28;;;;;;;11.15;80.32;102622.84;10378760;28;20034;-76
2022/02/08 15:26:19;;;;;;;9.80;2.23;;;;;;;10.97;79.75;102618.47;10378318;28;20041;-75
2022/02/08 15:31:19;;;;;;;2.85;2.58;;;;;;;10.99;80.69;102611.91;10344600;28;20611;-76
2022/02/08 15:36:19;;;;;;;11.38;2.75;;;;;;;11.19;81.10;102617.94;10361015;28;20484;-75
2022/02/08 15:41:20;;;;;;;3.42;2.20;;;;;;;11.30;80.87;102606.00;10378385;28;20065;-76
2022/02/08 15:46:24;;;;;;;5.95;2.65;;;;;;;11.03;80.62;102601.56;10377840;28;20034;-76
2022/02/08 15:51:33;;;;;;;8.82;2.30;;;;;;;10.73;82.40;102601.03;10377795;28;20189;-75
2022/02/08 16:05:13;;;;;;;6.50;2.42;;;;;;;10.03;84.76;102614.38;10377093;28;20066;-76
2022/02/08 16:07:09;;;;;;;5.50;3.15;;;;;;;9.82;86.20;102611.06;10375944;28;20049;-75
2022/02/08 16:28:14;;;;;;;14.75;2.95;;;;;;;9.50;87.63;102633.97;10359151;28;20393;-75
2022/02/08 16:59:11;;;;;;;5.97;3.33;;;;;;;8.98;91.96;102660.56;10358056;28;20061;-75
2022/02/08 17:04:11;;;;;;;14.05;4.75;;;;;;;9.00;91.73;102654.03;10374778;28;20473;-75
2022/02/08 17:09:16;;;;;;;7.97;2.78;;;;;;;9.06;91.57;102663.38;10374426;28;20042;-75
2022/02/08 17:14:26;;;;;;;15.85;3.45;;;;;;;9.04;91.54;102660.00;10374246;28;20160;-75
2022/02/08 17:45:48;;;;;;;12.57;3.17;;;;;;;9.12;92.15;102652.00;10358960;28;20485;-75
2022/02/08 17:50:49;;;;;;;6.22;3.28;;;;;;;9.18;91.85;102650.56;10356242;28;20041;-75
2022/02/08 17:55:49;;;;;;;5.00;3.33;;;;;;;9.20;91.19;102654.00;10372864;28;20056;-75
2022/02/08 18:00:50;;;;;;;6.05;2.60;;;;;;;9.18;92.01;102646.00;10373232;28;20049;-75
2022/02/08 18:05:50;;;;;;;22.83;4.80;;;;;;;9.13;91.81;102633.97;10373446;28;20061;-75
2022/02/08 18:10:55;;;;;;;17.02;6.70;;;;;;;9.06;91.90;102628.25;10373307;28;20053;-75
2022/02/08 18:15:58;;;;;;;11.13;5.68;;;;;;;9.12;92.12;102643.03;10373056;28;20026;-75
2022/02/08 18:21:10;;;;;;;10.75;4.53;;;;;;;9.24;91.72;102639.19;10355911;28;20029;-75
2022/02/08 19:03:21;;;;;;;9.20;2.95;;;;;;;9.30;93.53;102668.34;10379681;28;20061;-75
2022/02/08 19:19:32;;;;;;;15.20;4.43;;;;;;;9.34;94.65;102660.78;10379131;28;20041;-75
2022/02/08 19:24:28;;;;;;;11.13;3.20;;;;;;;9.30;94.53;102658.38;10377947;28;20060;-75
2022/02/08 19:29:30;;;;;;;11.15;4.53;;;;;;;9.25;94.60;102654.41;10378387;28;20038;-75
2022/02/08 19:34:30;;;;;;;14.82;4.50;;;;;;;9.25;94.63;102654.41;10360988;28;20054;-75
2022/02/08 19:39:31;;;;;;;12.40;3.28;;;;;;;9.26;94.78;102638.03;10376763;28;20072;-74
2022/02/08 19:44:32;;;;;;;16.15;3.70;;;;;;;9.22;94.81;102642.03;10360783;28;20034;-75
2022/02/08 19:49:32;;;;;;;16.58;3.63;;;;;;;9.08;94.89;102647.88;10377910;28;20421;-74
2022/02/08 19:54:39;;;;;;;9.98;4.05;;;;;;;9.09;95.02;102657.69;10343229;28;20034;-75
2022/02/08 19:59:41;;;;;;;;;;;;;;;9.10;95.43;102653.16;10401913;28;20046;-75
2022/02/08 20:04:46;;;;;;;11.57;3.78;;;;;;;9.09;95.39;102649.59;10417266;28;20375;-75
2022/02/08 20:09:46;;;;;;;11.80;4.47;;;;;;;9.07;95.48;102665.97;10418054;28;20382;-75
2022/02/08 20:14:47;;;;;;;9.68;2.80;;;;;;;9.11;95.18;102654.88;10417072;28;20037;-75
2022/02/08 20:19:47;;;;;;;7.38;3.05;;;;;;;9.10;94.74;102661.28;10417438;28;20082;-74
2022/02/08 20:24:50;;;;;;;11.50;4.43;;;;;;;9.14;95.15;102670.78;10416659;28;20087;-77
2022/02/08 20:29:55;;;;;;;5.88;3.88;;;;;;;9.15;95.37;102683.31;10415266;28;20036;-77
2022/02/08 20:34:55;;;;;;;9.48;3.03;;;;;;;9.16;95.45;102683.16;10415193;28;20487;-77
2022/02/08 20:39:56;;;;;;;16.70;4.45;;;;;;;9.18;95.12;102673.03;10415268;28;20034;-75
2022/02/08 20:44:56;;;;;;;11.57;3.38;;;;;;;9.15;95.52;102672.50;10415438;28;20057;-76
2022/02/08 20:49:58;;;;;;;13.82;2.88;;;;;;;9.13;94.92;102672.66;10415399;28;20073;-75
2022/02/08 20:55:05;;;;;;;7.03;2.88;;;;;;;9.14;95.15;102681.59;10397676;28;20036;-75
2022/02/08 21:00:09;;;;;;;14.55;3.92;;;;;;;9.17;95.08;102667.81;10387578;28;20053;-75
2022/02/08 21:10:16;;;;;;;4.40;2.63;;;;;;;9.10;95.69;102658.56;10318234;28;20382;-75
2022/02/08 21:15:16;;;;;;;12.07;3.38;;;;;;;9.13;95.33;102655.59;10345339;28;20030;-77
2022/02/08 21:20:16;;;;;;;16.77;4.38;;;;;;;9.04;95.78;102660.00;10340382;28;20044;-75
2022/02/08 21:25:17;;;;;;;9.18;3.13;;;;;;;9.04;95.91;102649.19;10356572;28;20083;-75
2022/02/08 21:30:29;;;;;;;6.47;2.67;;;;;;;9.10;96.24;102639.66;10374231;28;20507;-75
2022/02/08 21:51:27;;;;;;;18.88;4.07;;;;;;;9.04;96.66;102623.00;10373696;28;20468;-75
2022/02/08 21:56:27;;;;;;;6.78;3.40;;;;;;;9.02;96.41;102630.41;10373176;28;20034;-75
2022/02/08 22:01:29;;;;;;;5.40;2.60;;;;;;;9.02;95.90;102616.88;10317747;28;20046;-75
2022/02/08 22:06:29;;;;;;;12.23;2.35;;;;;;;8.98;95.95;102611.94;10380776;28;20096;-75
2022/02/08 22:22:11;;;;;;;17.67;2.78;;;;;;;8.99;96.47;102619.88;10381433;28;20405;-75
2022/02/08 22:32:20;;;;;;;7.93;3.05;;;;;;;8.89;96.17;102597.44;10380896;28;20049;-76
2022/02/08 22:37:31;;;;;;;10.55;2.45;;;;;;;8.92;96.88;102609.81;10381381;28;20034;-75
2022/02/08 22:42:37;;;;;;;7.00;2.97;;;;;;;8.91;96.84;102611.66;10380952;28;20064;-76
2022/02/08 22:47:41;;;;;;;9.30;2.73;;;;;;;8.90;96.52;102620.75;10380350;28;20096;-75
2022/02/08 22:52:41;;;;;;;10.20;3.72;;;;;;;8.92;97.29;102618.75;10380398;28;20109;-76
2022/02/08 22:57:42;;;;;;;11.02;3.67;;;;;;;8.94;96.34;102613.22;10379352;28;20050;-76
2022/02/08 23:02:43;;;;;;;11.43;2.80;;;;;;;8.89;96.95;102612.78;10379937;28;20034;-76
2022/02/08 23:07:43;;;;;;;13.77;3.13;;;;;;;8.95;97.12;102604.13;10379357;28;20038;-76
2022/02/08 23:13:14;;;;;;;15.77;3.53;;;;;;;8.90;97.49;102606.38;10345922;28;20038;-75
2022/02/08 23:39:32;;;;;;;11.23;2.63;;;;;;;8.91;96.89;102595.44;10363690;28;20041;-76
2022/02/08 23:44:36;;;;;;;13.57;3.75;;;;;;;8.90;96.52;102582.91;10378606;28;20034;-76
2022/02/08 23:50:02;;;;;;;4.57;2.15;;;;;;;8.83;97.59;102581.81;10361257;28;20037;-76
2022/02/08 23:55:02;;;;;;;10.10;2.90;;;;;;;8.91;96.82;102595.44;10376875;28;20718;-76
